createdAt,value
2023-07-15T00:02:25.249Z,1006.75
2023-07-15T00:12:25.091Z,1006.63
2023-07-15T00:22:24.998Z,1006.50
2023-07-15T00:32:24.835Z,1006.43
2023-07-15T00:42:24.683Z,1006.26
2023-07-15T00:52:24.540Z,1006.19
2023-07-15T01:02:25.556Z,1006.22
2023-07-15T01:12:24.284Z,1006.13
2023-07-15T01:22:24.210Z,1006.02
2023-07-15T01:32:24.037Z,1005.94
2023-07-15T01:42:23.901Z,1005.77
2023-07-15T01:52:23.740Z,1005.69
2023-07-15T02:02:23.699Z,1005.52
2023-07-15T02:12:23.458Z,1005.58
2023-07-15T02:22:23.384Z,1005.59
2023-07-15T02:32:23.178Z,1005.62
2023-07-15T02:42:23.073Z,1005.54
2023-07-15T02:52:22.999Z,1005.59
2023-07-15T03:02:22.883Z,1005.62
2023-07-15T03:12:22.677Z,1005.64
2023-07-15T03:22:22.538Z,1005.56
2023-07-15T03:32:22.400Z,1005.43
2023-07-15T03:42:22.190Z,1005.34
2023-07-15T03:52:24.130Z,1005.20
2023-07-15T04:02:21.939Z,1005.11
2023-07-15T04:12:21.757Z,1005.16
2023-07-15T04:22:21.668Z,1005.05
2023-07-15T04:32:21.576Z,1005.08
2023-07-15T04:42:21.366Z,1005.05
2023-07-15T04:52:21.248Z,1005.02
2023-07-15T05:02:21.128Z,1005.02
2023-07-15T05:12:21.048Z,1005.07
2023-07-15T05:22:20.848Z,1005.10
2023-07-15T05:32:20.937Z,1004.94
2023-07-15T05:42:20.624Z,1004.97
2023-07-15T05:52:20.449Z,1005.00
2023-07-15T06:02:20.345Z,1005.00
2023-07-15T06:12:20.161Z,1004.96
2023-07-15T06:22:20.071Z,1004.87
2023-07-15T06:32:19.950Z,1004.85
2023-07-15T06:42:19.747Z,1004.86
2023-07-15T06:52:19.598Z,1004.79
2023-07-15T07:02:19.636Z,1004.74
2023-07-15T07:12:20.402Z,1004.71
2023-07-15T07:22:19.272Z,1004.62
2023-07-15T07:32:19.090Z,1004.49
2023-07-15T07:42:19.001Z,1004.54
2023-07-15T07:52:18.857Z,1004.43
2023-07-15T08:02:18.753Z,1004.38
2023-07-15T08:12:18.611Z,1004.29
2023-07-15T08:22:18.552Z,1004.12
2023-07-15T08:32:18.499Z,1004.11
2023-07-15T08:42:18.257Z,1004.07
2023-07-15T08:52:18.132Z,1004.11
2023-07-15T09:02:18.007Z,1004.10
2023-07-15T09:12:17.831Z,1004.07
2023-07-15T09:22:17.732Z,1004.01
2023-07-15T09:32:17.679Z,1003.98
2023-07-15T09:42:17.703Z,1003.88
2023-07-15T09:52:17.745Z,1003.91
2023-07-15T10:02:17.520Z,1003.85
2023-07-15T10:12:17.198Z,1004.02
2023-07-15T10:22:17.093Z,1003.89
2023-07-15T10:32:20.502Z,1003.89
2023-07-15T10:42:16.966Z,1004.01
2023-07-15T10:52:17.075Z,1003.99
2023-07-15T11:02:16.958Z,1004.01
2023-07-15T11:12:16.675Z,1003.96
2023-07-15T11:22:16.428Z,1003.90
2023-07-15T11:32:16.359Z,1003.85
2023-07-15T11:42:16.235Z,1003.78
2023-07-15T11:52:16.115Z,1003.68
2023-07-15T12:02:16.349Z,1003.67
2023-07-15T12:12:16.022Z,1003.66
2023-07-15T12:22:16.111Z,1003.78
2023-07-15T12:32:16.133Z,1003.49
2023-07-15T12:42:16.451Z,1003.43
2023-07-15T12:52:15.682Z,1003.37
2023-07-15T13:02:15.654Z,1003.19
2023-07-15T13:12:15.559Z,1003.21
2023-07-15T13:22:17.131Z,1003.19
2023-07-15T13:32:16.206Z,1003.04
2023-07-15T13:42:15.716Z,1003.08
2023-07-15T13:52:15.991Z,1002.97
2023-07-15T14:02:14.842Z,1002.99
2023-07-15T14:12:14.734Z,1002.93
2023-07-15T14:22:16.954Z,1002.92
2023-07-15T14:32:14.500Z,1002.98
2023-07-15T14:42:14.643Z,1002.73
2023-07-15T14:52:14.263Z,1002.54
2023-07-15T15:02:14.115Z,1002.55
2023-07-15T15:12:14.053Z,1002.64
2023-07-15T15:22:13.962Z,1002.46
2023-07-15T15:32:13.821Z,1002.34
2023-07-15T15:42:13.672Z,1002.32
2023-07-15T15:52:13.495Z,1002.09
2023-07-15T16:02:13.593Z,1002.09
2023-07-15T16:12:13.355Z,1002.21
2023-07-15T16:22:13.158Z,1002.14
2023-07-15T16:32:14.126Z,1002.06
2023-07-15T16:42:12.928Z,1002.13
2023-07-15T16:52:12.739Z,1001.96
2023-07-15T17:02:12.723Z,1002.06
2023-07-15T17:12:12.513Z,1002.13
2023-07-15T17:22:12.759Z,1002.08
2023-07-15T17:32:12.459Z,1002.23
2023-07-15T17:42:12.443Z,1002.14
2023-07-15T17:52:12.081Z,1002.20
2023-07-15T18:02:13.202Z,1002.28
2023-07-15T18:12:11.796Z,1002.14
2023-07-15T18:22:11.735Z,1001.92
2023-07-15T18:32:11.521Z,1001.70
2023-07-15T18:42:11.369Z,1001.39
2023-07-15T18:52:11.594Z,1001.30
2023-07-15T19:02:11.217Z,1001.27
2023-07-15T19:12:11.216Z,1001.23
2023-07-15T19:22:10.866Z,1001.26
2023-07-15T19:32:10.880Z,1001.34
2023-07-15T19:42:11.171Z,1001.48
2023-07-15T19:52:10.537Z,1001.42
2023-07-15T20:02:10.638Z,1001.42
2023-07-15T20:12:10.204Z,1001.36
2023-07-15T20:22:10.111Z,1001.75
2023-07-15T20:32:10.469Z,1002.82
2023-07-15T20:42:10.967Z,1003.61
2023-07-15T20:52:09.784Z,1004.23
2023-07-15T21:02:11.066Z,1005.08
2023-07-15T21:12:13.315Z,1005.61
2023-07-15T21:22:09.295Z,1005.23
2023-07-15T21:32:09.551Z,1004.47
2023-07-15T21:42:09.004Z,1004.02
2023-07-15T21:52:09.254Z,1002.95
2023-07-15T22:02:08.651Z,1002.59
2023-07-15T22:12:08.639Z,1003.36
2023-07-15T22:22:08.563Z,1003.14
2023-07-15T22:32:08.318Z,1001.52
2023-07-15T22:42:08.224Z,1000.97
2023-07-15T22:52:08.890Z,1001.11
2023-07-15T23:02:09.274Z,1001.56
2023-07-15T23:12:07.783Z,1001.48
2023-07-15T23:22:07.606Z,1001.37
2023-07-15T23:32:07.564Z,1001.39
2023-07-15T23:42:07.296Z,1001.38
2023-07-15T23:52:07.281Z,1001.36
